Terminal Aerodrome Forecast
Issued by NWS

Home | Current Version | Previous Version | Graphics & Text | Print | Product List | Glossary Off
Versions: 1 2 3 4 5 6 7 8 9 10 11 12 13 14 15 16 17 18 19 20

000
FTUS43 KABR 241139
TAFATY
TAF
KATY 241139Z 2412/2512 07006KT P6SM OVC035
     FM241800 08008KT P6SM SCT015 OVC025
     FM250000 06006KT P6SM OVC010
      TEMPO 2503/2506 4SM -RA BR SCT008 BKN015 OVC025
     FM250600 01006KT 4SM -RA BR OVC008=

USA.gov is the U.S. government's official web portal to all federal, state and local government web resources and services.